Time;durP1;ratioP1;P1;durP2;ratioP2;P2;SDS_P1;SDS_P2;PMS_P1;PMS_P2;Temp;Humidity;BMP_temperature;BMP_pressure;BME280_temperature;BME280_humidity;BME280_pressure;Samples;Min_cycle;Max_cycle;Signal;HPM_P1;HPM_P2
2022/12/19 00:00:44;;;;;;;51.20;24.23;;;;;;;;;;5000235;28;20677;-76
2022/12/19 00:03:11;;;;;;;50.83;23.33;;;;;;;;;;5001535;28;20057;-76
2022/12/19 00:05:39;;;;;;;51.42;24.17;;;;;;;;;;5002957;28;20041;-76
2022/12/19 00:08:06;;;;;;;54.22;24.23;;;;;;;;;;5002453;28;20821;-76
2022/12/19 00:10:35;;;;;;;56.15;24.90;;;;;;;;;;5004382;28;20053;-75
2022/12/19 00:13:02;;;;;;;53.85;24.75;;;;;;;;;;4999766;28;20129;-77
2022/12/19 00:15:30;;;;;;;54.92;25.42;;;;;;;;;;5002440;28;20648;-76
2022/12/19 00:17:57;;;;;;;57.28;26.42;;;;;;;;;;5000346;28;20521;-76
2022/12/19 00:20:24;;;;;;;52.60;24.40;;;;;;;;;;5003247;28;20060;-77
2022/12/19 00:22:51;;;;;;;55.67;25.33;;;;;;;;;;5001790;28;20696;-76
2022/12/19 00:25:19;;;;;;;55.95;26.38;;;;;;;;;;5000068;28;20137;-77
2022/12/19 00:27:47;;;;;;;55.55;24.95;;;;;;;;;;5000155;28;20050;-75
2022/12/19 00:30:15;;;;;;;55.63;25.13;;;;;;;;;;4999482;28;20042;-76
2022/12/19 00:32:43;;;;;;;58.95;26.25;;;;;;;;;;5005406;28;20507;-77
2022/12/19 00:35:10;;;;;;;58.38;27.70;;;;;;;;;;4999747;28;20505;-77
2022/12/19 00:37:37;;;;;;;53.72;25.45;;;;;;;;;;5003330;28;20053;-76
2022/12/19 00:40:05;;;;;;;52.58;25.40;;;;;;;;;;5005778;28;20041;-77
2022/12/19 00:42:32;;;;;;;51.95;25.30;;;;;;;;;;5000625;28;20049;-77
2022/12/19 00:45:01;;;;;;;55.00;25.58;;;;;;;;;;5004703;28;20049;-77
2022/12/19 00:47:29;;;;;;;53.88;26.92;;;;;;;;;;5010340;28;20107;-76
2022/12/19 00:49:56;;;;;;;56.70;26.05;;;;;;;;;;5006273;28;20053;-76
2022/12/19 00:52:23;;;;;;;54.75;25.85;;;;;;;;;;5025759;28;20057;-77
2022/12/19 00:54:50;;;;;;;57.53;26.02;;;;;;;;;;5013287;28;20052;-76
2022/12/19 00:57:19;;;;;;;56.45;26.00;;;;;;;;;;5022063;28;20254;-75
2022/12/19 00:59:46;;;;;;;57.42;26.27;;;;;;;;;;5005470;28;20045;-77
2022/12/19 01:02:14;;;;;;;57.13;25.42;;;;;;;;;;5002977;28;20720;-77
2022/12/19 01:04:42;;;;;;;59.42;26.30;;;;;;;;;;5004909;28;20084;-77
2022/12/19 01:07:09;;;;;;;59.22;27.45;;;;;;;;;;5002959;28;20049;-77
2022/12/19 01:09:37;;;;;;;58.03;25.58;;;;;;;;;;5005013;28;20063;-77
2022/12/19 01:14:52;;;;;;;61.20;27.42;;;;;;;;;;5004726;28;20666;-77
2022/12/19 01:17:21;;;;;;;62.03;27.23;;;;;;;;;;5005344;28;20045;-77
2022/12/19 01:19:48;;;;;;;64.20;29.27;;;;;;;;;;5003790;28;20628;-78
2022/12/19 01:22:15;;;;;;;62.33;27.50;;;;;;;;;;5009218;28;20559;-77
2022/12/19 01:24:42;;;;;;;64.75;29.17;;;;;;;;;;5008087;28;20053;-77
2022/12/19 01:27:10;;;;;;;61.63;28.00;;;;;;;;;;5005743;28;20053;-76
2022/12/19 01:29:37;;;;;;;60.00;27.58;;;;;;;;;;5003870;28;20049;-77
2022/12/19 01:32:04;;;;;;;66.53;28.13;;;;;;;;;;5004746;28;20046;-76
2022/12/19 01:34:33;;;;;;;65.00;28.48;;;;;;;;;;4998515;28;20058;-77
2022/12/19 01:37:00;;;;;;;62.65;27.70;;;;;;;;;;5002228;28;20057;-78
2022/12/19 01:39:28;;;;;;;64.82;28.35;;;;;;;;;;5004695;28;20057;-77
2022/12/19 01:41:55;;;;;;;59.20;27.55;;;;;;;;;;5002269;28;20052;-77
2022/12/19 01:44:25;;;;;;;66.15;28.45;;;;;;;;;;4998908;28;20514;-77
2022/12/19 01:46:53;;;;;;;68.35;29.58;;;;;;;;;;5007046;28;20060;-78
2022/12/19 01:49:25;;;;;;;64.30;29.08;;;;;;;;;;5000820;28;20058;-78
2022/12/19 01:51:54;;;;;;;60.05;27.80;;;;;;;;;;4995866;28;20072;-77
2022/12/19 01:54:23;;;;;;;65.93;29.13;;;;;;;;;;5006174;28;20049;-77
2022/12/19 01:56:52;;;;;;;66.93;29.00;;;;;;;;;;5003540;28;20054;-77
2022/12/19 01:59:21;;;;;;;69.00;27.80;;;;;;;;;;5002780;28;20432;-77
2022/12/19 02:01:48;;;;;;;63.25;28.67;;;;;;;;;;5003940;28;20041;-78
2022/12/19 02:04:16;;;;;;;64.88;29.83;;;;;;;;;;5005148;28;20042;-78
2022/12/19 02:06:44;;;;;;;65.32;28.95;;;;;;;;;;5004141;28;20053;-78
2022/12/19 02:09:13;;;;;;;65.22;29.55;;;;;;;;;;4998598;28;20038;-78
2022/12/19 02:11:40;;;;;;;72.68;30.80;;;;;;;;;;5003822;28;20059;-77
2022/12/19 02:14:08;;;;;;;71.40;29.42;;;;;;;;;;5000225;28;20128;-78
2022/12/19 02:16:39;;;;;;;72.93;30.42;;;;;;;;;;5003624;28;20060;-78
2022/12/19 02:19:14;;;;;;;74.88;30.85;;;;;;;;;;5003332;28;20072;-78
2022/12/19 02:21:58;;;;;;;78.38;32.92;;;;;;;;;;5004822;28;20053;-77
2022/12/19 02:24:44;;;;;;;76.60;30.52;;;;;;;;;;5003881;28;20064;-78
2022/12/19 02:27:22;;;;;;;79.50;32.58;;;;;;;;;;4998033;28;20508;-77
2022/12/19 02:30:00;;;;;;;76.82;32.47;;;;;;;;;;5018182;28;20730;-77
2022/12/19 02:32:33;;;;;;;79.30;32.75;;;;;;;;;;5002426;28;20059;-77
2022/12/19 02:35:04;;;;;;;85.03;33.80;;;;;;;;;;4994474;28;20720;-78
2022/12/19 02:37:34;;;;;;;83.85;33.53;;;;;;;;;;5002830;28;20308;-76
2022/12/19 02:40:03;;;;;;;91.85;34.28;;;;;;;;;;4998611;28;20060;-78
2022/12/19 02:42:32;;;;;;;86.30;34.72;;;;;;;;;;4992389;28;20061;-77
2022/12/19 02:45:01;;;;;;;102.20;38.55;;;;;;;;;;5003193;28;20104;-77
2022/12/19 02:47:30;;;;;;;92.03;34.85;;;;;;;;;;5007481;28;20048;-77
2022/12/19 02:49:58;;;;;;;88.30;34.58;;;;;;;;;;5002467;28;20132;-78
2022/12/19 02:52:45;;;;;;;91.35;36.45;;;;;;;;;;5001374;28;20046;-77
2022/12/19 02:55:15;;;;;;;94.15;35.53;;;;;;;;;;4999596;28;20060;-77
2022/12/19 02:57:48;;;;;;;92.32;38.28;;;;;;;;;;5005986;28;20060;-77
2022/12/19 03:00:18;;;;;;;95.63;38.15;;;;;;;;;;5000073;28;20056;-78
2022/12/19 03:02:51;;;;;;;95.82;37.30;;;;;;;;;;5006042;28;20163;-77
2022/12/19 03:05:23;;;;;;;95.57;37.22;;;;;;;;;;5004241;28;20072;-78
2022/12/19 03:07:51;;;;;;;101.95;37.72;;;;;;;;;;5002667;28;20065;-78
2022/12/19 03:10:23;;;;;;;97.72;37.35;;;;;;;;;;5000577;28;20049;-77
2022/12/19 03:12:51;;;;;;;107.55;38.53;;;;;;;;;;5002248;28;20068;-77
2022/12/19 03:15:19;;;;;;;106.40;38.05;;;;;;;;;;5002975;28;20844;-77
2022/12/19 03:17:49;;;;;;;99.78;36.90;;;;;;;;;;5002218;28;20092;-77
2022/12/19 03:20:20;;;;;;;98.53;37.95;;;;;;;;;;4997478;28;20133;-78
2022/12/19 03:22:47;;;;;;;93.03;38.30;;;;;;;;;;5003425;28;20068;-77
2022/12/19 03:25:15;;;;;;;104.13;38.75;;;;;;;;;;5008051;28;20072;-77
2022/12/19 03:27:42;;;;;;;99.65;38.28;;;;;;;;;;5009278;28;20089;-77
2022/12/19 03:30:11;;;;;;;94.63;35.90;;;;;;;;;;5012142;28;20049;-77
2022/12/19 03:32:40;;;;;;;99.32;38.25;;;;;;;;;;5001449;28;20049;-77
2022/12/19 03:35:11;;;;;;;107.28;39.28;;;;;;;;;;4998728;28;20109;-77
2022/12/19 03:37:41;;;;;;;99.75;37.45;;;;;;;;;;5000792;28;20053;-78
2022/12/19 03:40:10;;;;;;;108.93;37.70;;;;;;;;;;5000304;28;20539;-77
2022/12/19 03:45:42;;;;;;;132.02;40.70;;;;;;;;;;4941387;28;20042;-78
2022/12/19 03:48:09;;;;;;;;;;;;;;;;;;4992196;28;20061;-77
2022/12/19 03:50:43;;;;;;;115.55;38.70;;;;;;;;;;4993817;28;19943;-77
2022/12/19 03:53:16;;;;;;;118.65;39.85;;;;;;;;;;4999759;28;20075;-77
2022/12/19 03:55:44;;;;;;;134.75;41.65;;;;;;;;;;5000806;28;20057;-76
2022/12/19 03:58:14;;;;;;;118.53;41.20;;;;;;;;;;5006680;28;20052;-77
2022/12/19 04:00:46;;;;;;;135.98;44.22;;;;;;;;;;5004007;28;20051;-76
2022/12/19 04:03:14;;;;;;;122.60;42.55;;;;;;;;;;5004037;28;20530;-75
2022/12/19 04:05:44;;;;;;;136.00;44.38;;;;;;;;;;5004979;28;20086;-76
2022/12/19 04:08:12;;;;;;;126.95;43.17;;;;;;;;;;5004966;28;20052;-76
2022/12/19 04:10:44;;;;;;;156.80;45.88;;;;;;;;;;5002948;28;20049;-75
2022/12/19 04:13:14;;;;;;;126.07;43.05;;;;;;;;;;4984614;28;20461;-76
2022/12/19 04:15:48;;;;;;;134.65;42.75;;;;;;;;;;4981852;28;20161;-77
2022/12/19 04:18:15;;;;;;;;;;;;;;;;;;4981947;28;20103;-75
2022/12/19 04:20:45;;;;;;;119.57;39.92;;;;;;;;;;4983094;28;19921;-75
2022/12/19 04:23:16;;;;;;;121.82;42.33;;;;;;;;;;4980893;28;20115;-76
2022/12/19 04:25:46;;;;;;;148.68;44.92;;;;;;;;;;4982604;28;20072;-76
2022/12/19 04:28:14;;;;;;;134.00;42.55;;;;;;;;;;4981081;28;20054;-77
2022/12/19 04:30:42;;;;;;;121.35;42.45;;;;;;;;;;4975371;28;20693;-75
2022/12/19 04:33:09;;;;;;;125.57;45.08;;;;;;;;;;4974766;28;20103;-76
2022/12/19 04:35:36;;;;;;;129.15;45.10;;;;;;;;;;4982367;28;20537;-76
2022/12/19 04:38:05;;;;;;;132.48;44.47;;;;;;;;;;4981872;28;20049;-75
2022/12/19 04:40:32;;;;;;;150.30;44.42;;;;;;;;;;4980512;28;20572;-77
2022/12/19 04:43:00;;;;;;;127.65;42.10;;;;;;;;;;4973913;28;20061;-77
2022/12/19 04:45:27;;;;;;;161.55;47.58;;;;;;;;;;4983994;28;20058;-76
2022/12/19 04:47:54;;;;;;;148.98;45.40;;;;;;;;;;4978861;28;20505;-77
2022/12/19 04:50:21;;;;;;;152.98;45.05;;;;;;;;;;4964330;28;20417;-77
2022/12/19 04:52:49;;;;;;;150.50;44.83;;;;;;;;;;4978405;28;20056;-76
2022/12/19 04:55:17;;;;;;;127.30;43.30;;;;;;;;;;4975023;28;20050;-77
2022/12/19 04:57:45;;;;;;;162.35;46.30;;;;;;;;;;4980511;28;20879;-76
2022/12/19 05:00:13;;;;;;;151.20;44.78;;;;;;;;;;4982977;28;20046;-75
2022/12/19 05:02:40;;;;;;;142.82;44.80;;;;;;;;;;4980310;28;20058;-75
2022/12/19 05:05:07;;;;;;;138.00;45.50;;;;;;;;;;4979146;28;20070;-77
2022/12/19 05:07:35;;;;;;;145.38;44.17;;;;;;;;;;4981521;28;20054;-77
2022/12/19 05:10:02;;;;;;;165.93;47.00;;;;;;;;;;4980838;28;20064;-76
2022/12/19 05:12:31;;;;;;;131.32;44.30;;;;;;;;;;4983402;28;20069;-76
2022/12/19 05:14:58;;;;;;;153.90;48.03;;;;;;;;;;4996218;28;20057;-77
2022/12/19 05:17:25;;;;;;;137.40;46.58;;;;;;;;;;5006321;28;20057;-77
2022/12/19 05:19:53;;;;;;;138.80;45.95;;;;;;;;;;5000402;28;20050;-75
2022/12/19 05:22:20;;;;;;;131.73;43.75;;;;;;;;;;4997565;28;20058;-76
2022/12/19 05:24:47;;;;;;;144.73;45.80;;;;;;;;;;5002345;28;20053;-76
2022/12/19 05:27:16;;;;;;;129.85;43.63;;;;;;;;;;5004870;28;20052;-77
2022/12/19 05:29:44;;;;;;;126.20;43.17;;;;;;;;;;5010648;28;20072;-77
2022/12/19 05:32:12;;;;;;;128.77;42.75;;;;;;;;;;5004706;28;20546;-77
2022/12/19 05:34:39;;;;;;;127.60;42.90;;;;;;;;;;5004522;28;20042;-76
2022/12/19 05:37:06;;;;;;;163.30;45.42;;;;;;;;;;5008217;28;20056;-76
2022/12/19 05:39:33;;;;;;;155.38;44.25;;;;;;;;;;5032292;28;20115;-75
2022/12/19 05:42:01;;;;;;;147.60;44.53;;;;;;;;;;5003393;28;20053;-76
2022/12/19 05:44:28;;;;;;;137.52;41.88;;;;;;;;;;4999996;28;20041;-75
2022/12/19 05:46:57;;;;;;;131.25;43.50;;;;;;;;;;5002272;28;20305;-76
2022/12/19 05:49:24;;;;;;;133.00;41.20;;;;;;;;;;5000300;28;20064;-77
2022/12/19 05:51:52;;;;;;;117.25;41.20;;;;;;;;;;5000955;28;20052;-75
2022/12/19 05:54:19;;;;;;;130.60;39.45;;;;;;;;;;5003054;28;20056;-76
2022/12/19 05:56:46;;;;;;;115.25;39.70;;;;;;;;;;5000410;28;20130;-76
2022/12/19 05:59:14;;;;;;;121.78;37.53;;;;;;;;;;5000428;28;20547;-75
2022/12/19 06:01:41;;;;;;;123.93;37.67;;;;;;;;;;4994587;28;20819;-74
2022/12/19 06:04:10;;;;;;;114.25;36.78;;;;;;;;;;5003579;28;20409;-74
2022/12/19 06:06:37;;;;;;;111.88;37.38;;;;;;;;;;4998365;28;20053;-72
2022/12/19 06:09:04;;;;;;;112.97;37.30;;;;;;;;;;4995316;28;20045;-75
2022/12/19 06:11:34;;;;;;;101.05;34.55;;;;;;;;;;5001299;28;20151;-74
2022/12/19 06:14:02;;;;;;;207.32;42.88;;;;;;;;;;5003103;28;20041;-73
2022/12/19 06:16:29;;;;;;;109.38;35.38;;;;;;;;;;5002298;28;20522;-73
2022/12/19 06:18:56;;;;;;;127.32;39.40;;;;;;;;;;5003438;28;20057;-75
2022/12/19 06:21:25;;;;;;;114.47;36.88;;;;;;;;;;4995141;28;20049;-73
2022/12/19 06:23:52;;;;;;;127.35;38.00;;;;;;;;;;4993992;28;20049;-73
2022/12/19 06:26:20;;;;;;;133.77;37.75;;;;;;;;;;4995815;28;20522;-73
2022/12/19 06:28:47;;;;;;;120.47;38.58;;;;;;;;;;4996751;28;20065;-72
2022/12/19 06:31:15;;;;;;;109.50;38.53;;;;;;;;;;4993363;28;20045;-74
2022/12/19 06:33:42;;;;;;;107.25;35.40;;;;;;;;;;4997932;28;20441;-73
2022/12/19 06:36:12;;;;;;;164.57;39.03;;;;;;;;;;5002608;28;20150;-73
2022/12/19 06:38:41;;;;;;;105.03;35.25;;;;;;;;;;5002019;28;20061;-73
2022/12/19 06:43:54;;;;;;;103.93;34.60;;;;;;;;;;4995123;28;20049;-73
2022/12/19 06:46:21;;;;;;;109.07;36.50;;;;;;;;;;5000263;28;20050;-75
2022/12/19 06:48:49;;;;;;;95.15;34.13;;;;;;;;;;5036884;28;20060;-74
2022/12/19 06:51:17;;;;;;;116.25;32.80;;;;;;;;;;5001992;28;20044;-75
2022/12/19 06:53:45;;;;;;;72.30;28.95;;;;;;;;;;5002072;28;20411;-76
2022/12/19 06:56:14;;;;;;;70.45;28.83;;;;;;;;;;5002060;28;20645;-74
2022/12/19 06:58:41;;;;;;;93.30;31.25;;;;;;;;;;4998369;28;20147;-75
2022/12/19 07:01:08;;;;;;;82.10;31.65;;;;;;;;;;5004391;28;20052;-75
2022/12/19 07:03:36;;;;;;;71.70;30.35;;;;;;;;;;5002665;28;20098;-75
2022/12/19 07:06:04;;;;;;;77.82;29.00;;;;;;;;;;5000010;28;20056;-76
2022/12/19 07:08:31;;;;;;;72.57;29.92;;;;;;;;;;5002783;28;20765;-75
2022/12/19 07:11:00;;;;;;;71.20;28.90;;;;;;;;;;5000529;28;20056;-75
2022/12/19 07:13:27;;;;;;;73.57;29.05;;;;;;;;;;5002930;28;20586;-75
2022/12/19 07:15:58;;;;;;;65.22;28.98;;;;;;;;;;5001200;28;20093;-77
2022/12/19 07:18:26;;;;;;;64.57;28.13;;;;;;;;;;5002295;28;20053;-75
2022/12/19 07:20:53;;;;;;;77.72;27.02;;;;;;;;;;5002113;28;20103;-74
2022/12/19 07:23:22;;;;;;;65.25;27.65;;;;;;;;;;4998497;28;20160;-75
2022/12/19 07:25:49;;;;;;;78.75;29.60;;;;;;;;;;5001860;28;20483;-76
2022/12/19 07:28:18;;;;;;;62.28;26.42;;;;;;;;;;5003054;28;20053;-75
2022/12/19 07:30:45;;;;;;;62.75;26.42;;;;;;;;;;5001189;28;20654;-75
2022/12/19 07:33:13;;;;;;;61.42;27.17;;;;;;;;;;5002887;28;20045;-74
2022/12/19 07:35:40;;;;;;;63.05;27.90;;;;;;;;;;5001099;28;20053;-76
2022/12/19 07:38:07;;;;;;;65.13;29.17;;;;;;;;;;4998976;28;20045;-75
2022/12/19 07:40:35;;;;;;;71.80;30.50;;;;;;;;;;5001830;28;21093;-74
2022/12/19 07:43:03;;;;;;;62.90;29.08;;;;;;;;;;4998876;28;20068;-75
2022/12/19 07:45:32;;;;;;;62.25;29.13;;;;;;;;;;5001999;28;20055;-74
2022/12/19 07:48:00;;;;;;;62.08;29.45;;;;;;;;;;4998102;28;20072;-75
2022/12/19 07:50:28;;;;;;;59.88;28.05;;;;;;;;;;5001425;28;20053;-75
2022/12/19 07:52:55;;;;;;;60.55;28.55;;;;;;;;;;5001615;28;20352;-75
2022/12/19 07:55:22;;;;;;;59.33;29.67;;;;;;;;;;4997051;28;20052;-75
2022/12/19 07:57:50;;;;;;;62.10;29.00;;;;;;;;;;4984169;28;20049;-75
2022/12/19 08:00:17;;;;;;;61.72;28.83;;;;;;;;;;4999476;28;20084;-75
2022/12/19 08:02:46;;;;;;;66.78;29.13;;;;;;;;;;4994739;28;20069;-74
2022/12/19 08:05:13;;;;;;;76.47;28.40;;;;;;;;;;4990901;28;20068;-73
2022/12/19 08:07:41;;;;;;;59.13;27.70;;;;;;;;;;4998246;28;20053;-75
2022/12/19 08:10:10;;;;;;;61.63;28.23;;;;;;;;;;4999116;28;20046;-74
2022/12/19 08:12:37;;;;;;;62.50;28.58;;;;;;;;;;5006980;28;20160;-74
2022/12/19 08:15:05;;;;;;;64.53;28.17;;;;;;;;;;4992342;28;20119;-74
2022/12/19 08:17:32;;;;;;;60.45;28.55;;;;;;;;;;4992504;28;20739;-74
2022/12/19 08:20:01;;;;;;;62.03;29.52;;;;;;;;;;4988449;28;20603;-74
2022/12/19 08:22:29;;;;;;;64.90;28.35;;;;;;;;;;4993723;28;20464;-74
2022/12/19 08:24:57;;;;;;;75.72;30.10;;;;;;;;;;5001563;28;20049;-74
2022/12/19 08:27:24;;;;;;;97.35;33.65;;;;;;;;;;4995982;28;20613;-74
2022/12/19 08:29:51;;;;;;;74.60;31.85;;;;;;;;;;4993569;28;20056;-75
2022/12/19 08:32:19;;;;;;;66.93;30.80;;;;;;;;;;4994923;28;20046;-75
2022/12/19 08:34:47;;;;;;;66.25;30.00;;;;;;;;;;4994376;28;20049;-74
2022/12/19 08:37:15;;;;;;;67.38;31.05;;;;;;;;;;4990585;28;20091;-74
2022/12/19 08:39:42;;;;;;;70.03;32.75;;;;;;;;;;4992682;28;20049;-75
2022/12/19 08:42:10;;;;;;;67.40;30.55;;;;;;;;;;4996613;28;20061;-75
2022/12/19 08:44:37;;;;;;;150.25;37.58;;;;;;;;;;4992038;28;20045;-74
2022/12/19 08:47:04;;;;;;;67.05;31.08;;;;;;;;;;4998259;28;20046;-75
2022/12/19 08:49:31;;;;;;;71.50;33.83;;;;;;;;;;4996226;28;20104;-76
2022/12/19 08:51:59;;;;;;;64.07;31.20;;;;;;;;;;5011098;28;20045;-75
2022/12/19 08:54:27;;;;;;;75.43;33.42;;;;;;;;;;4998008;28;20064;-75
2022/12/19 08:56:55;;;;;;;62.38;32.67;;;;;;;;;;4994441;28;20057;-76
2022/12/19 08:59:22;;;;;;;66.13;33.83;;;;;;;;;;4995002;28;20049;-75
2022/12/19 09:01:49;;;;;;;64.50;33.50;;;;;;;;;;4999802;28;20046;-76
2022/12/19 09:04:17;;;;;;;66.90;33.20;;;;;;;;;;5002171;28;20057;-75
2022/12/19 09:06:44;;;;;;;70.50;36.28;;;;;;;;;;4995437;28;20041;-75
2022/12/19 09:09:11;;;;;;;80.70;37.10;;;;;;;;;;4995170;28;20053;-75
2022/12/19 09:11:40;;;;;;;65.18;35.47;;;;;;;;;;4997845;28;20055;-77
2022/12/19 09:14:07;;;;;;;63.22;34.70;;;;;;;;;;4971747;28;20716;-76
2022/12/19 09:16:34;;;;;;;67.28;35.30;;;;;;;;;;4975596;28;20057;-76
2022/12/19 09:19:02;;;;;;;61.08;35.13;;;;;;;;;;4978179;28;20050;-77
2022/12/19 09:21:30;;;;;;;60.08;34.20;;;;;;;;;;4977932;28;20042;-76
2022/12/19 09:23:58;;;;;;;59.58;34.53;;;;;;;;;;4977716;28;20049;-75
2022/12/19 09:26:26;;;;;;;50.25;32.08;;;;;;;;;;4975783;28;20060;-76
2022/12/19 09:28:55;;;;;;;51.88;31.08;;;;;;;;;;4979345;28;20054;-77
2022/12/19 09:31:24;;;;;;;49.10;31.45;;;;;;;;;;4980600;28;20505;-76
2022/12/19 09:33:52;;;;;;;47.42;28.98;;;;;;;;;;4978558;28;20201;-76
2022/12/19 09:36:20;;;;;;;46.03;27.23;;;;;;;;;;4972493;28;20098;-77
2022/12/19 09:38:47;;;;;;;43.03;27.30;;;;;;;;;;4978996;28;20792;-77
2022/12/19 09:41:30;;;;;;;39.10;25.83;;;;;;;;;;4978301;28;20053;-77
2022/12/19 09:44:03;;;;;;;36.90;24.52;;;;;;;;;;4973074;28;20136;-76
2022/12/19 09:46:34;;;;;;;35.35;23.30;;;;;;;;;;4976675;28;20055;-76
2022/12/19 09:49:03;;;;;;;32.00;20.30;;;;;;;;;;4974891;28;20045;-77
2022/12/19 09:51:33;;;;;;;31.70;20.52;;;;;;;;;;4972970;28;20706;-76
2022/12/19 09:54:05;;;;;;;26.88;18.98;;;;;;;;;;4974574;28;21387;-78
2022/12/19 09:56:35;;;;;;;31.17;19.38;;;;;;;;;;4977632;28;20058;-78
2022/12/19 09:59:07;;;;;;;30.52;19.58;;;;;;;;;;4981548;28;20119;-78
2022/12/19 10:01:38;;;;;;;27.88;18.58;;;;;;;;;;4975259;28;20053;-78
2022/12/19 10:04:10;;;;;;;27.02;17.60;;;;;;;;;;4973657;28;20055;-77
2022/12/19 10:06:38;;;;;;;24.95;17.52;;;;;;;;;;4976755;28;20054;-77
2022/12/19 10:09:10;;;;;;;27.25;17.45;;;;;;;;;;4976179;28;20056;-77
2022/12/19 10:11:44;;;;;;;26.23;17.30;;;;;;;;;;5015117;28;20201;-77
2022/12/19 10:14:26;;;;;;;28.42;16.55;;;;;;;;;;5006833;28;20498;-76
2022/12/19 10:40:28;;;;;;;22.80;14.20;;;;;;;;;;4928609;28;20034;-77
2022/12/19 10:43:00;;;;;;;21.48;13.68;;;;;;;;;;4929159;28;20054;-78
2022/12/19 10:45:31;;;;;;;20.08;13.27;;;;;;;;;;4921993;28;20051;-79
2022/12/19 10:47:58;;;;;;;17.52;12.45;;;;;;;;;;4920255;29;20078;-78
2022/12/19 10:50:27;;;;;;;17.98;12.75;;;;;;;;;;4949530;28;20050;-78
2022/12/19 10:52:55;;;;;;;18.98;12.98;;;;;;;;;;4980755;28;20077;-78
2022/12/19 10:55:42;;;;;;;19.63;12.45;;;;;;;;;;4970924;28;20086;-79
2022/12/19 10:58:21;;;;;;;18.15;11.35;;;;;;;;;;4997131;28;20052;-77
2022/12/19 11:01:13;;;;;;;18.50;11.13;;;;;;;;;;4965413;28;20053;-79
2022/12/19 11:03:41;;;;;;;17.63;10.68;;;;;;;;;;4947592;28;20054;-77
2022/12/19 11:06:24;;;;;;;20.23;10.52;;;;;;;;;;4981075;28;20073;-76
2022/12/19 11:08:51;;;;;;;19.20;10.85;;;;;;;;;;4973732;28;20680;-77
2022/12/19 11:11:22;;;;;;;19.52;10.57;;;;;;;;;;4976781;28;20046;-76
2022/12/19 11:13:49;;;;;;;16.85;10.63;;;;;;;;;;4997042;28;20071;-78
2022/12/19 11:16:22;;;;;;;14.63;10.23;;;;;;;;;;4998313;28;20056;-76
2022/12/19 11:18:49;;;;;;;15.80;10.10;;;;;;;;;;5002672;28;20110;-78
2022/12/19 11:21:18;;;;;;;15.30;10.32;;;;;;;;;;5002826;28;20639;-77
2022/12/19 11:23:49;;;;;;;17.25;10.07;;;;;;;;;;4999560;28;20095;-78
2022/12/19 11:26:29;;;;;;;16.75;10.18;;;;;;;;;;5001436;28;20416;-77
2022/12/19 11:28:58;;;;;;;17.60;10.07;;;;;;;;;;5001610;28;20045;-78
2022/12/19 11:31:26;;;;;;;16.77;10.63;;;;;;;;;;5002671;28;20818;-79
2022/12/19 11:33:54;;;;;;;18.80;11.00;;;;;;;;;;5003370;28;20049;-78
2022/12/19 11:36:29;;;;;;;17.75;11.93;;;;;;;;;;4998146;28;20050;-78
2022/12/19 11:38:57;;;;;;;18.63;11.38;;;;;;;;;;4990592;28;20049;-77
2022/12/19 11:41:32;;;;;;;21.45;12.02;;;;;;;;;;4992722;28;20479;-77
2022/12/19 11:44:02;;;;;;;14.48;11.55;;;;;;;;;;4987232;28;20049;-77
2022/12/19 11:46:35;;;;;;;15.25;11.80;;;;;;;;;;4992171;28;20052;-77
2022/12/19 11:49:07;;;;;;;19.98;11.15;;;;;;;;;;4988251;28;20120;-77
2022/12/19 11:51:39;;;;;;;14.82;10.75;;;;;;;;;;4990584;28;20073;-78
2022/12/19 11:54:10;;;;;;;18.27;11.45;;;;;;;;;;4993220;28;20049;-77
2022/12/19 11:56:38;;;;;;;16.70;10.73;;;;;;;;;;4991134;28;20054;-77
2022/12/19 11:59:13;;;;;;;15.63;10.88;;;;;;;;;;4990979;28;20045;-78
2022/12/19 12:01:43;;;;;;;17.00;10.50;;;;;;;;;;4998829;28;20057;-77
2022/12/19 12:04:20;;;;;;;15.35;10.88;;;;;;;;;;5000679;28;20512;-79
2022/12/19 12:06:49;;;;;;;17.50;10.45;;;;;;;;;;4994959;28;20054;-76
2022/12/19 12:09:25;;;;;;;13.50;9.70;;;;;;;;;;4997429;28;20053;-76
2022/12/19 12:11:55;;;;;;;18.05;10.15;;;;;;;;;;5000436;28;20050;-77
2022/12/19 12:14:28;;;;;;;14.50;9.23;;;;;;;;;;4993290;28;20042;-77
2022/12/19 12:17:11;;;;;;;12.00;8.70;;;;;;;;;;4994536;28;20056;-77
2022/12/19 12:19:47;;;;;;;13.10;7.97;;;;;;;;;;5029467;28;20060;-77
2022/12/19 12:22:20;;;;;;;12.00;7.95;;;;;;;;;;4992087;28;20141;-76
2022/12/19 12:24:54;;;;;;;11.98;8.75;;;;;;;;;;4996946;28;20059;-77
2022/12/19 12:27:29;;;;;;;12.18;7.47;;;;;;;;;;4998501;28;20693;-77
2022/12/19 12:30:01;;;;;;;15.05;7.85;;;;;;;;;;4997463;28;20068;-76
2022/12/19 12:32:39;;;;;;;12.75;7.90;;;;;;;;;;4991043;28;20041;-77
2022/12/19 12:35:10;;;;;;;13.88;7.65;;;;;;;;;;4998730;28;20052;-77
2022/12/19 12:37:42;;;;;;;10.15;7.13;;;;;;;;;;4994487;28;20057;-77
2022/12/19 12:40:22;;;;;;;15.73;7.57;;;;;;;;;;4999148;28;20045;-77
2022/12/19 12:42:54;;;;;;;13.10;6.72;;;;;;;;;;5032772;28;20076;-77
2022/12/19 12:45:25;;;;;;;12.03;7.00;;;;;;;;;;5006112;28;20472;-78
2022/12/19 12:47:53;;;;;;;9.75;6.75;;;;;;;;;;5005618;28;20060;-77
2022/12/19 12:50:21;;;;;;;8.80;6.75;;;;;;;;;;4999495;28;20053;-77
2022/12/19 12:52:52;;;;;;;13.77;7.35;;;;;;;;;;4997561;28;20042;-77
2022/12/19 12:55:22;;;;;;;10.75;7.47;;;;;;;;;;4998227;28;20049;-78
2022/12/19 12:57:49;;;;;;;13.95;8.68;;;;;;;;;;4994450;28;20068;-77
2022/12/19 13:00:31;;;;;;;15.73;8.70;;;;;;;;;;5027391;28;20061;-77
2022/12/19 13:03:05;;;;;;;15.07;9.10;;;;;;;;;;4994284;28;20045;-77
2022/12/19 13:05:36;;;;;;;16.10;9.85;;;;;;;;;;4992795;28;20056;-77
2022/12/19 13:08:23;;;;;;;15.70;10.63;;;;;;;;;;4996670;28;20111;-77
2022/12/19 13:10:54;;;;;;;17.38;11.35;;;;;;;;;;5000938;28;20132;-77
2022/12/19 13:13:42;;;;;;;19.15;12.38;;;;;;;;;;5004805;28;20552;-79
2022/12/19 13:16:24;;;;;;;19.17;11.52;;;;;;;;;;4999368;28;20166;-77
2022/12/19 13:19:04;;;;;;;23.55;11.50;;;;;;;;;;4997717;28;20045;-78
2022/12/19 13:21:59;;;;;;;20.73;13.18;;;;;;;;;;5012561;28;20058;-77
2022/12/19 13:24:38;;;;;;;20.60;13.43;;;;;;;;;;4996537;28;20077;-77
2022/12/19 13:27:25;;;;;;;21.80;13.35;;;;;;;;;;4988518;28;20057;-77
2022/12/19 13:29:56;;;;;;;22.88;15.00;;;;;;;;;;4995394;28;20100;-77
2022/12/19 13:32:24;;;;;;;28.65;15.15;;;;;;;;;;5002254;28;20049;-76
2022/12/19 13:34:55;;;;;;;26.77;16.88;;;;;;;;;;5002516;28;20064;-75
2022/12/19 13:37:27;;;;;;;21.88;15.57;;;;;;;;;;4996280;28;20057;-76
2022/12/19 13:40:11;;;;;;;23.67;16.50;;;;;;;;;;4998709;28;20830;-77
2022/12/19 13:45:28;;;;;;;33.13;18.17;;;;;;;;;;4995438;28;20057;-76
2022/12/19 13:47:56;;;;;;;28.13;18.08;;;;;;;;;;5001968;28;20045;-77
2022/12/19 13:50:27;;;;;;;26.50;17.05;;;;;;;;;;5001914;28;20049;-76
2022/12/19 13:52:54;;;;;;;23.88;17.30;;;;;;;;;;4997378;28;20045;-77
2022/12/19 13:55:21;;;;;;;22.95;16.95;;;;;;;;;;4995748;28;20049;-76
2022/12/19 13:57:49;;;;;;;25.83;17.73;;;;;;;;;;4989868;28;20057;-77
2022/12/19 14:00:18;;;;;;;28.50;17.98;;;;;;;;;;4997547;28;20046;-75
2022/12/19 14:02:49;;;;;;;27.38;18.67;;;;;;;;;;4992940;28;20136;-76
2022/12/19 14:05:25;;;;;;;27.90;19.77;;;;;;;;;;4988985;28;20112;-76
2022/12/19 14:07:52;;;;;;;34.95;21.50;;;;;;;;;;4994399;28;20045;-76
2022/12/19 14:10:22;;;;;;;40.20;22.85;;;;;;;;;;4994519;28;20100;-75
2022/12/19 14:15:35;;;;;;;34.05;21.75;;;;;;;;;;4992049;28;20112;-76
2022/12/19 14:18:10;;;;;;;32.80;20.85;;;;;;;;;;4984705;28;20073;-77
2022/12/19 14:20:37;;;;;;;38.67;22.95;;;;;;;;;;4995444;28;20057;-78
2022/12/19 14:23:05;;;;;;;30.50;21.50;;;;;;;;;;4995779;28;20443;-79
2022/12/19 14:25:35;;;;;;;31.42;20.15;;;;;;;;;;4996170;28;20602;-81
2022/12/19 14:28:05;;;;;;;30.92;18.30;;;;;;;;;;4999990;28;20053;-80
2022/12/19 14:30:33;;;;;;;26.13;17.83;;;;;;;;;;4996654;28;20065;-80
2022/12/19 14:33:09;;;;;;;32.53;19.38;;;;;;;;;;4999676;28;20045;-80
2022/12/19 14:35:38;;;;;;;26.55;16.98;;;;;;;;;;4996061;28;20064;-79
2022/12/19 14:38:07;;;;;;;26.52;17.40;;;;;;;;;;4997280;28;20054;-79
2022/12/19 14:40:39;;;;;;;21.65;15.43;;;;;;;;;;4999219;28;20068;-79
2022/12/19 14:45:55;;;;;;;23.02;14.80;;;;;;;;;;4994673;28;20182;-78
2022/12/19 14:48:26;;;;;;;22.17;14.75;;;;;;;;;;4996195;28;20046;-77
2022/12/19 14:51:05;;;;;;;21.50;13.73;;;;;;;;;;4994807;28;20947;-79
2022/12/19 14:53:32;;;;;;;21.77;13.25;;;;;;;;;;4992001;28;20064;-78
2022/12/19 14:56:04;;;;;;;24.88;13.75;;;;;;;;;;4995068;28;20045;-77
2022/12/19 14:58:33;;;;;;;21.30;12.45;;;;;;;;;;4995088;28;20058;-78
2022/12/19 15:01:00;;;;;;;18.92;12.00;;;;;;;;;;4998342;28;20065;-75
2022/12/19 15:03:29;;;;;;;21.00;12.15;;;;;;;;;;4998323;28;20059;-73
2022/12/19 15:06:05;;;;;;;22.13;11.80;;;;;;;;;;4991755;28;20496;-77
2022/12/19 15:08:34;;;;;;;21.85;13.57;;;;;;;;;;4990108;28;20057;-75
2022/12/19 15:13:18;;;;;;;22.10;13.27;;;;;;;;;;4996403;28;20073;-74